Golden Belle Hana — D7NV — position and weather

sailwx.info

Track history (hours):
 
Tides and Currents Weather Stations Pressure Air Temp Water Temp Dewpoint Dewpoint Depression Visibility Wind Speed Wind Dir Waves Ship Positions

Golden Belle Hana

Last reported at 2018-Feb-18 20:13 UTC. Time now 2018-Feb-21 11:28 UTC.
Position N 34°01' E 136°43'.

Length 103 m; draft 5.2 m.

Type: Ship (hazmat cat B). MMSI: 440251000.

Date/timePositionNaut miles runAvg speedWind from/ knotsBaromVisibWave heightAir tempDewpointWater temp
2018-Feb-18 20:13N 34°01' E 136°43'2 9.7
2018-Feb-18 19:58N 34°03' E 136°45'70 9.8
2018-Feb-18 12:50N 34°20' E 138°07'3 9.1
2018-Feb-18 12:30N 34°20' E 138°11'4 8.7
2018-Feb-18 12:00N 34°20' E 138°16'6 7.9
2018-Feb-18 11:11N 34°21' E 138°24'1 8.3
2018-Feb-18 11:00N 34°21' E 138°26'6 9.0
2018-Feb-18 10:22N 34°23' E 138°32'3 8.8
2018-Feb-18 10:00N 34°24' E 138°36'6 9.1
2018-Feb-18 09:21N 34°27' E 138°42'4 8.8
2018-Feb-18 08:57N 34°29' E 138°46'5 9.3
2018-Feb-18 08:25N 34°31' E 138°52'4 9.5
2018-Feb-18 08:00N 34°32' E 138°56'5 9.5
2018-Feb-18 07:29N 34°35' E 139°00'5 9.4
2018-Feb-18 07:00N 34°38' E 139°04'9 9.3
2018-Feb-18 06:05N 34°44' E 139°12'1 9.0
2018-Feb-18 06:00N 34°45' E 139°13'5 9.7
2018-Feb-18 05:30N 34°48' E 139°16'5 9.4
2018-Feb-18 05:00N 34°52' E 139°20'5 9.4
2018-Feb-18 04:25N 34°55' E 139°26'4 9.5
2018-Feb-18 04:00N 34°58' E 139°29'5 9.1
2018-Feb-18 03:30N 35°01' E 139°34'5 9.7
2018-Feb-18 03:00N 35°04' E 139°38'5 9.2
2018-Feb-18 02:30N 35°07' E 139°42'5 9.4
2018-Feb-18 02:00N 35°11' E 139°45'5 9.2
2018-Feb-18 01:30N 35°16' E 139°46'510.2
2018-Feb-18 01:01N 35°20' E 139°42'5 9.5
2018-Feb-18 00:30N 35°24' E 139°43'5 9.9
2018-Feb-18 00:00N 35°28' E 139°47'3 5.4
2018-Feb-17 23:30N 35°30' E 139°45'2 3.7
2018-Feb-17 22:57N 35°29' E 139°42'0 0.0
2018-Feb-17 22:27N 35°29' E 139°42'0 0.0
2018-Feb-17 21:57N 35°29' E 139°42'0 0.0
2018-Feb-17 21:27N 35°29' E 139°42'0 0.0
2018-Feb-17 20:57N 35°29' E 139°42'0 0.0
2018-Feb-17 20:27N 35°29' E 139°42'0 0.0
2018-Feb-17 19:57N 35°29' E 139°42'0 0.0
2018-Feb-17 19:27N 35°29' E 139°42'0 0.0
2018-Feb-17 18:57N 35°29' E 139°42'0 0.0
2018-Feb-17 18:27N 35°29' E 139°42'0 0.0
2018-Feb-17 17:57N 35°29' E 139°42'0 0.0
2018-Feb-17 17:27N 35°29' E 139°42'0 0.0
2018-Feb-17 16:57N 35°29' E 139°42'0 0.0
2018-Feb-17 16:27N 35°29' E 139°42'0 0.0
2018-Feb-17 15:57N 35°29' E 139°42'0 0.0
2018-Feb-17 15:27N 35°29' E 139°42'0 0.0
2018-Feb-17 14:57N 35°29' E 139°42'0 0.0
2018-Feb-17 14:27N 35°29' E 139°42'0 0.0
2018-Feb-17 13:57N 35°29' E 139°42'0 0.0
2018-Feb-17 13:27N 35°29' E 139°42'0 0.0
2018-Feb-17 12:57N 35°29' E 139°42'0 0.0
2018-Feb-17 12:27N 35°29' E 139°42'0 0.0
2018-Feb-17 11:57N 35°29' E 139°42'0 0.0
2018-Feb-17 11:27N 35°29' E 139°42'0 0.0
2018-Feb-17 10:57N 35°29' E 139°42'0 0.0
2018-Feb-17 10:27N 35°29' E 139°42'0 0.0
2018-Feb-17 09:57N 35°29' E 139°42'0 0.0
2018-Feb-17 09:27N 35°29' E 139°42'0 0.0
2018-Feb-17 08:57N 35°29' E 139°42'0 0.0
2018-Feb-17 08:27N 35°29' E 139°42'0 0.0
2018-Feb-17 07:57N 35°29' E 139°42'0 0.0
2018-Feb-17 07:27N 35°29' E 139°42'0 0.0
2018-Feb-17 06:57N 35°29' E 139°42'0 0.0
2018-Feb-17 06:27N 35°29' E 139°42'0 0.0
2018-Feb-17 05:57N 35°29' E 139°42'0 0.0
2018-Feb-17 05:27N 35°29' E 139°42'0 0.0
2018-Feb-17 04:57N 35°29' E 139°42'0 0.0
2018-Feb-17 04:27N 35°29' E 139°42'0 0.0
2018-Feb-17 03:57N 35°29' E 139°42'0 0.0
2018-Feb-17 03:27N 35°29' E 139°42'0 0.0
2018-Feb-17 02:57N 35°29' E 139°42'0 0.0
2018-Feb-17 02:27N 35°29' E 139°42'0 0.0
2018-Feb-17 01:57N 35°29' E 139°42'0 0.0
2018-Feb-17 01:27N 35°29' E 139°42'0 0.0
2018-Feb-17 00:57N 35°29' E 139°42'0 0.0
2018-Feb-17 00:27N 35°29' E 139°42'0 0.0
2018-Feb-16 23:57N 35°29' E 139°42'0 0.0
2018-Feb-16 23:26N 35°29' E 139°42'0 0.0
2018-Feb-16 23:00N 35°29' E 139°42'2 4.6
2018-Feb-16 22:30N 35°27' E 139°43'3 5.5
2018-Feb-16 22:00N 35°26' E 139°46'3 5.8
2018-Feb-16 21:30N 35°23' E 139°45'5 9.4
2018-Feb-16 21:00N 35°19' E 139°41'0 0.3
2018-Feb-16 20:27N 35°19' E 139°41'0 0.0
2018-Feb-16 19:57N 35°19' E 139°41'0 0.1
2018-Feb-16 19:27N 35°19' E 139°41'0 0.0
2018-Feb-16 18:57N 35°19' E 139°41'0 0.1
2018-Feb-16 18:27N 35°19' E 139°41'0 0.0
2018-Feb-16 17:57N 35°19' E 139°41'0 0.0
2018-Feb-16 17:21N 35°19' E 139°41'0 0.0
2018-Feb-16 16:57N 35°19' E 139°41'0 0.1
2018-Feb-16 16:21N 35°19' E 139°41'0 0.0
2018-Feb-16 15:57N 35°19' E 139°41'0 0.0
2018-Feb-16 15:27N 35°19' E 139°41'0 0.0
2018-Feb-16 14:57N 35°19' E 139°41'0 0.1
2018-Feb-16 14:27N 35°19' E 139°41'0 0.0
2018-Feb-16 13:57N 35°19' E 139°41'0 0.0
2018-Feb-16 13:30N 35°19' E 139°41'2 3.0
2018-Feb-16 13:00N 35°19' E 139°40'1 1.1
2018-Feb-16 12:30N 35°18' E 139°39'0 0.0
2018-Feb-16 11:30N 35°18' E 139°39'0 0.0
2018-Feb-16 11:00N 35°18' E 139°39'0 0.0
2018-Feb-16 10:30N 35°18' E 139°39'0 0.0
2018-Feb-16 09:54N 35°18' E 139°39'0 0.0
2018-Feb-16 09:30N 35°18' E 139°39'0 0.0
2018-Feb-16 08:12N 35°18' E 139°39'0 0.0
2018-Feb-16 07:54N 35°18' E 139°39'0 0.0
2018-Feb-16 07:30N 35°18' E 139°39'0 0.0
2018-Feb-16 06:42N 35°18' E 139°39'0 0.0
2018-Feb-16 06:24N 35°18' E 139°39'0 0.0
2018-Feb-16 06:00N 35°18' E 139°39'0 0.0
2018-Feb-16 05:30N 35°18' E 139°39'0 0.0
2018-Feb-16 04:48N 35°18' E 139°39'0 0.0
2018-Feb-16 04:30N 35°18' E 139°39'0 0.0
2018-Feb-16 03:18N 35°18' E 139°39'0 0.0
2018-Feb-16 02:12N 35°18' E 139°39'0 0.0
2018-Feb-16 01:48N 35°18' E 139°39'0 0.0
2018-Feb-16 01:24N 35°18' E 139°39'0 0.0
2018-Feb-16 01:00N 35°18' E 139°39'0 0.0
2018-Feb-16 00:24N 35°18' E 139°39'0 0.0
2018-Feb-16 00:00N 35°18' E 139°39'0 0.0
2018-Feb-15 23:30N 35°18' E 139°39'2 3.7
2018-Feb-15 23:00N 35°19' E 139°41'0 0.5
2018-Feb-15 22:27N 35°19' E 139°41'0 0.0
2018-Feb-15 21:57N 35°19' E 139°41'0 0.0
2018-Feb-15 21:27N 35°19' E 139°41'0 0.0
2018-Feb-15 20:57N 35°19' E 139°41'0 0.0
2018-Feb-15 20:27N 35°19' E 139°41'0 0.0
2018-Feb-15 19:57N 35°19' E 139°41'0 0.1
2018-Feb-15 19:27N 35°19' E 139°41'0 0.0
2018-Feb-15 18:57N 35°19' E 139°41'0 0.0
2018-Feb-15 18:27N 35°19' E 139°41'0 0.1
2018-Feb-15 17:57N 35°19' E 139°41'0 0.0
2018-Feb-15 17:27N 35°19' E 139°41'0 0.0
2018-Feb-15 16:57N 35°19' E 139°41'0 0.0
2018-Feb-15 16:27N 35°19' E 139°41'0 0.0
2018-Feb-15 15:57N 35°19' E 139°41'0 0.0
2018-Feb-15 15:26N 35°19' E 139°41'0 0.0
2018-Feb-15 14:57N 35°19' E 139°41'0 0.1
2018-Feb-15 14:26N 35°19' E 139°41'0 0.0
2018-Feb-15 13:56N 35°19' E 139°41'0 0.0
2018-Feb-15 13:26N 35°19' E 139°41'0 0.0
2018-Feb-15 12:56N 35°19' E 139°41'0 0.0
2018-Feb-15 12:26N 35°19' E 139°41'0 0.0
2018-Feb-15 11:56N 35°19' E 139°41'0 0.0
2018-Feb-15 11:26N 35°19' E 139°41'0 0.0
2018-Feb-15 10:56N 35°19' E 139°41'0 0.0
2018-Feb-15 10:20N 35°19' E 139°41'0 0.0
2018-Feb-15 09:56N 35°19' E 139°41'0 0.1
2018-Feb-15 09:26N 35°19' E 139°41'0 0.1
2018-Feb-15 08:56N 35°19' E 139°41'0 0.0
2018-Feb-15 08:26N 35°19' E 139°41'0 0.1
2018-Feb-15 07:56N 35°19' E 139°41'0 0.0
2018-Feb-15 07:26N 35°19' E 139°41'0 0.0
2018-Feb-15 06:56N 35°19' E 139°41'0 0.0
2018-Feb-15 06:20N 35°19' E 139°41'0 0.0
2018-Feb-15 05:56N 35°19' E 139°41'0 0.0
2018-Feb-15 05:26N 35°19' E 139°41'0 0.0
2018-Feb-15 04:56N 35°19' E 139°41'0 0.0
2018-Feb-15 04:26N 35°19' E 139°41'0 0.0
2018-Feb-15 03:56N 35°19' E 139°41'0 0.0
2018-Feb-15 03:26N 35°19' E 139°41'0 0.0
2018-Feb-15 02:56N 35°19' E 139°41'0 0.0
2018-Feb-15 02:26N 35°19' E 139°41'0 0.0
2018-Feb-15 01:56N 35°19' E 139°41'0 0.3
2018-Feb-15 01:30N 35°19' E 139°41'5 9.6
2018-Feb-15 01:00N 35°16' E 139°46'510.9
2018-Feb-15 00:30N 35°11' E 139°47'510.4
2018-Feb-15 00:00N 35°06' E 139°47'5 9.5
2018-Feb-14 23:30N 35°02' E 139°43'510.6
2018-Feb-14 22:59N 34°60' E 139°37'4 8.3
2018-Feb-14 22:29N 34°58' E 139°32'611.0
2018-Feb-14 21:56N 34°54' E 139°26'511.5
2018-Feb-14 21:30N 34°50' E 139°22'611.1
2018-Feb-14 20:57N 34°46' E 139°17'3 6.7
2018-Feb-14 20:30N 34°44' E 139°15'5 8.2
2018-Feb-14 19:51N 34°40' E 139°10'410.5
2018-Feb-14 19:30N 34°37' E 139°07'610.4
2018-Feb-14 18:54N 34°33' E 139°02'4 9.7
2018-Feb-14 18:30N 34°31' E 138°58'710.2
2018-Feb-14 17:50N 34°29' E 138°50'610.3
2018-Feb-14 17:16N 34°27' E 138°43'310.1
2018-Feb-14 16:57N 34°26' E 138°39'6 9.9
2018-Feb-14 16:21N 34°24' E 138°33'4 9.9
2018-Feb-14 16:00N 34°22' E 138°29'8 9.6
2018-Feb-14 15:08N 34°19' E 138°20'310.2
2018-Feb-14 14:50N 34°18' E 138°16'6 9.6
2018-Feb-14 14:14N 34°16' E 138°10'2 9.4
2018-Feb-14 13:58N 34°15' E 138°07'154 9.0
2018-Feb-13 20:51N 33°48' E 135°04'410.2
2018-Feb-13 20:30N 33°51' E 135°01'510.0
2018-Feb-13 20:00N 33°56' E 134°59'510.3
2018-Feb-13 19:30N 34°01' E 134°58'510.1
2018-Feb-13 19:00N 34°06' E 134°58'611.3
2018-Feb-13 18:30N 34°12' E 134°59'510.4
2018-Feb-13 18:00N 34°17' E 134°58'510.3
2018-Feb-13 17:30N 34°22' E 134°60'510.3
2018-Feb-13 17:00N 34°27' E 135°01'510.6
2018-Feb-13 16:30N 34°32' E 135°03'510.6
2018-Feb-13 16:00N 34°37' E 135°01'613.0
2018-Feb-13 15:30N 34°35' E 134°53'611.0
2018-Feb-13 15:00N 34°33' E 134°47'510.4
2018-Feb-13 14:30N 34°30' E 134°41'510.6
2018-Feb-13 14:00N 34°29' E 134°36'510.3
2018-Feb-13 13:30N 34°27' E 134°30'510.3
2018-Feb-13 12:58N 34°24' E 134°24'510.2
2018-Feb-13 12:30N 34°24' E 134°18'510.2
2018-Feb-13 11:59N 34°25' E 134°12'75 9.5
2018-Feb-13 04:06N 34°01' E 132°46'1 9.8
2018-Feb-13 04:00N 34°00' E 132°45'510.1
2018-Feb-13 03:30N 33°56' E 132°42'510.5
2018-Feb-13 03:00N 33°54' E 132°36'611.2
2018-Feb-13 02:29N 33°54' E 132°29'510.4
2018-Feb-13 01:58N 33°58' E 132°34'4 8.2
2018-Feb-13 01:30N 34°01' E 132°31'610.9
2018-Feb-13 00:59N 34°04' E 132°25'511.3
2018-Feb-13 00:30N 34°06' E 132°20'4 7.6
2018-Feb-12 23:58N 34°08' E 132°15'0 0.0
2018-Feb-12 23:22N 34°08' E 132°15'0 0.0
2018-Feb-12 22:52N 34°08' E 132°15'0 0.0
2018-Feb-12 22:28N 34°08' E 132°15'0 0.0
2018-Feb-12 21:58N 34°08' E 132°15'0 0.0
2018-Feb-12 21:28N 34°08' E 132°15'0 0.0
2018-Feb-12 20:58N 34°08' E 132°15'0 0.0
2018-Feb-12 20:28N 34°08' E 132°15'0 0.0
2018-Feb-12 19:58N 34°08' E 132°15'0 0.0
2018-Feb-12 19:28N 34°08' E 132°15'0 0.0
2018-Feb-12 18:58N 34°08' E 132°15'0 0.0
2018-Feb-12 18:22N 34°08' E 132°15'0 0.0
2018-Feb-12 17:58N 34°08' E 132°15'0 0.0
2018-Feb-12 17:28N 34°08' E 132°15'0 0.0
2018-Feb-12 16:58N 34°08' E 132°15'0 0.0
2018-Feb-12 16:28N 34°08' E 132°15'0 0.0
2018-Feb-12 15:58N 34°08' E 132°15'0 0.0
2018-Feb-12 15:16N 34°08' E 132°15'0 0.0
2018-Feb-12 14:52N 34°08' E 132°15'0 0.0
2018-Feb-12 14:04N 34°08' E 132°15'0 0.0
2018-Feb-12 13:58N 34°08' E 132°15'0 0.0
2018-Feb-12 12:58N 34°08' E 132°15'0 0.0
2018-Feb-12 11:28N 34°08' E 132°15'0 0.0
2018-Feb-12 09:58N 34°08' E 132°15'0 0.0
2018-Feb-12 07:58N 34°08' E 132°15'0 0.1
2018-Feb-12 07:22N 34°08' E 132°15'0 0.0
2018-Feb-12 06:58N 34°08' E 132°15'0 0.0
2018-Feb-12 02:46N 34°08' E 132°15'0 0.0
2018-Feb-12 02:22N 34°08' E 132°15'0 0.0
2018-Feb-12 01:58N 34°08' E 132°15'0 0.1
2018-Feb-12 01:28N 34°08' E 132°15'0 0.0
2018-Feb-12 00:46N 34°08' E 132°15'0 0.2
2018-Feb-12 00:27N 34°08' E 132°15'0 0.0
2018-Feb-11 23:57N 34°08' E 132°15'0 0.0
2018-Feb-11 23:29N 34°08' E 132°15'0 0.1
2018-Feb-11 23:00N 34°08' E 132°15'2 3.4
2018-Feb-11 22:30N 34°08' E 132°17'3 6.6
2018-Feb-11 22:00N 34°09' E 132°21'4 8.5
2018-Feb-11 21:30N 34°05' E 132°24'5 8.6
2018-Feb-11 20:59N 34°02' E 132°27'4 7.4
2018-Feb-11 20:29N 34°01' E 132°32'3 5.8
2018-Feb-11 20:00N 33°60' E 132°35'510.1
2018-Feb-11 19:29N 33°56' E 132°30'510.9
2018-Feb-11 19:00N 33°52' E 132°26'710.6
2018-Feb-11 18:20N 33°50' E 132°18'811.0
2018-Feb-11 17:36N 33°48' E 132°08'311.0
2018-Feb-11 17:20N 33°46' E 132°05'910.9
2018-Feb-11 16:30N 33°45' E 131°55'611.1
2018-Feb-11 16:00N 33°45' E 131°48'611.6
2018-Feb-11 15:29N 33°46' E 131°41'611.7
2018-Feb-11 15:00N 33°47' E 131°34'612.0
2018-Feb-11 14:29N 33°49' E 131°27'612.1
2018-Feb-11 14:00N 33°50' E 131°20'612.3
2018-Feb-11 13:30N 33°51' E 131°13'612.0
2018-Feb-11 13:00N 33°54' E 131°07'611.6
2018-Feb-11 12:30N 33°58' E 131°02'5 9.9
2018-Feb-11 12:00N 33°56' E 130°56'3 6.6
2018-Feb-11 11:30N 33°56' E 130°52'510.9
2018-Feb-11 11:00N 34°01' E 130°50'611.2
2018-Feb-11 10:30N 34°02' E 130°43'611.5
2018-Feb-11 10:00N 34°00' E 130°37'611.3
2018-Feb-11 09:30N 33°58' E 130°30'611.2
2018-Feb-11 08:58N 33°56' E 130°23'510.7
2018-Feb-11 08:31N 33°54' E 130°18'510.5
2018-Feb-11 08:00N 33°51' E 130°13'611.0
2018-Feb-11 07:29N 33°48' E 130°07'611.1
2018-Feb-11 06:58N 33°45' E 130°01'511.1
2018-Feb-11 06:30N 33°42' E 129°56'  
Track history (hours):
 
Tides and Currents Weather Stations Pressure Air Temp Water Temp Dewpoint Dewpoint Depression Visibility Wind Speed Wind Dir Waves Ship Positions

Golden Belle Hana

Last reported at 2018-Feb-18 20:13 UTC. Time now 2018-Feb-21 11:28 UTC.
Position N 34°01' E 136°43'.

Length 103 m; draft 5.2 m.

Type: Ship (hazmat cat B). MMSI: 440251000.

Date/timePositionNaut miles runAvg speedWind from/ knotsBaromVisibWave heightAir tempDewpointWater temp
2018-Feb-18 20:13N 34°01' E 136°43'2 9.7
2018-Feb-18 19:58N 34°03' E 136°45'70 9.8
2018-Feb-18 12:50N 34°20' E 138°07'3 9.1
2018-Feb-18 12:30N 34°20' E 138°11'4 8.7
2018-Feb-18 12:00N 34°20' E 138°16'6 7.9
2018-Feb-18 11:11N 34°21' E 138°24'1 8.3
2018-Feb-18 11:00N 34°21' E 138°26'6 9.0
2018-Feb-18 10:22N 34°23' E 138°32'3 8.8
2018-Feb-18 10:00N 34°24' E 138°36'6 9.1
2018-Feb-18 09:21N 34°27' E 138°42'4 8.8
2018-Feb-18 08:57N 34°29' E 138°46'5 9.3
2018-Feb-18 08:25N 34°31' E 138°52'4 9.5
2018-Feb-18 08:00N 34°32' E 138°56'5 9.5
2018-Feb-18 07:29N 34°35' E 139°00'5 9.4
2018-Feb-18 07:00N 34°38' E 139°04'9 9.3
2018-Feb-18 06:05N 34°44' E 139°12'1 9.0
2018-Feb-18 06:00N 34°45' E 139°13'5 9.7
2018-Feb-18 05:30N 34°48' E 139°16'5 9.4
2018-Feb-18 05:00N 34°52' E 139°20'5 9.4
2018-Feb-18 04:25N 34°55' E 139°26'4 9.5
2018-Feb-18 04:00N 34°58' E 139°29'5 9.1
2018-Feb-18 03:30N 35°01' E 139°34'5 9.7
2018-Feb-18 03:00N 35°04' E 139°38'5 9.2
2018-Feb-18 02:30N 35°07' E 139°42'5 9.4
2018-Feb-18 02:00N 35°11' E 139°45'5 9.2
2018-Feb-18 01:30N 35°16' E 139°46'510.2
2018-Feb-18 01:01N 35°20' E 139°42'5 9.5
2018-Feb-18 00:30N 35°24' E 139°43'5 9.9
2018-Feb-18 00:00N 35°28' E 139°47'3 5.4
2018-Feb-17 23:30N 35°30' E 139°45'2 3.7
2018-Feb-17 22:57N 35°29' E 139°42'0 0.0
2018-Feb-17 22:27N 35°29' E 139°42'0 0.0
2018-Feb-17 21:57N 35°29' E 139°42'0 0.0
2018-Feb-17 21:27N 35°29' E 139°42'0 0.0
2018-Feb-17 20:57N 35°29' E 139°42'0 0.0
2018-Feb-17 20:27N 35°29' E 139°42'0 0.0
2018-Feb-17 19:57N 35°29' E 139°42'0 0.0
2018-Feb-17 19:27N 35°29' E 139°42'0 0.0
2018-Feb-17 18:57N 35°29' E 139°42'0 0.0
2018-Feb-17 18:27N 35°29' E 139°42'0 0.0
2018-Feb-17 17:57N 35°29' E 139°42'0 0.0
2018-Feb-17 17:27N 35°29' E 139°42'0 0.0
2018-Feb-17 16:57N 35°29' E 139°42'0 0.0
2018-Feb-17 16:27N 35°29' E 139°42'0 0.0
2018-Feb-17 15:57N 35°29' E 139°42'0 0.0
2018-Feb-17 15:27N 35°29' E 139°42'0 0.0
2018-Feb-17 14:57N 35°29' E 139°42'0 0.0
2018-Feb-17 14:27N 35°29' E 139°42'0 0.0
2018-Feb-17 13:57N 35°29' E 139°42'0 0.0
2018-Feb-17 13:27N 35°29' E 139°42'0 0.0
2018-Feb-17 12:57N 35°29' E 139°42'0 0.0
2018-Feb-17 12:27N 35°29' E 139°42'0 0.0
2018-Feb-17 11:57N 35°29' E 139°42'0 0.0
2018-Feb-17 11:27N 35°29' E 139°42'0 0.0
2018-Feb-17 10:57N 35°29' E 139°42'0 0.0
2018-Feb-17 10:27N 35°29' E 139°42'0 0.0
2018-Feb-17 09:57N 35°29' E 139°42'0 0.0
2018-Feb-17 09:27N 35°29' E 139°42'0 0.0
2018-Feb-17 08:57N 35°29' E 139°42'0 0.0
2018-Feb-17 08:27N 35°29' E 139°42'0 0.0
2018-Feb-17 07:57N 35°29' E 139°42'0 0.0
2018-Feb-17 07:27N 35°29' E 139°42'0 0.0
2018-Feb-17 06:57N 35°29' E 139°42'0 0.0
2018-Feb-17 06:27N 35°29' E 139°42'0 0.0
2018-Feb-17 05:57N 35°29' E 139°42'0 0.0
2018-Feb-17 05:27N 35°29' E 139°42'0 0.0
2018-Feb-17 04:57N 35°29' E 139°42'0 0.0
2018-Feb-17 04:27N 35°29' E 139°42'0 0.0
2018-Feb-17 03:57N 35°29' E 139°42'0 0.0
2018-Feb-17 03:27N 35°29' E 139°42'0 0.0
2018-Feb-17 02:57N 35°29' E 139°42'0 0.0
2018-Feb-17 02:27N 35°29' E 139°42'0 0.0
2018-Feb-17 01:57N 35°29' E 139°42'0 0.0
2018-Feb-17 01:27N 35°29' E 139°42'0 0.0
2018-Feb-17 00:57N 35°29' E 139°42'0 0.0
2018-Feb-17 00:27N 35°29' E 139°42'0 0.0
2018-Feb-16 23:57N 35°29' E 139°42'0 0.0
2018-Feb-16 23:26N 35°29' E 139°42'0 0.0
2018-Feb-16 23:00N 35°29' E 139°42'2 4.6
2018-Feb-16 22:30N 35°27' E 139°43'3 5.5
2018-Feb-16 22:00N 35°26' E 139°46'3 5.8
2018-Feb-16 21:30N 35°23' E 139°45'5 9.4
2018-Feb-16 21:00N 35°19' E 139°41'0 0.3
2018-Feb-16 20:27N 35°19' E 139°41'0 0.0
2018-Feb-16 19:57N 35°19' E 139°41'0 0.1
2018-Feb-16 19:27N 35°19' E 139°41'0 0.0
2018-Feb-16 18:57N 35°19' E 139°41'0 0.1
2018-Feb-16 18:27N 35°19' E 139°41'0 0.0
2018-Feb-16 17:57N 35°19' E 139°41'0 0.0
2018-Feb-16 17:21N 35°19' E 139°41'0 0.0
2018-Feb-16 16:57N 35°19' E 139°41'0 0.1
2018-Feb-16 16:21N 35°19' E 139°41'0 0.0
2018-Feb-16 15:57N 35°19' E 139°41'0 0.0
2018-Feb-16 15:27N 35°19' E 139°41'0 0.0
2018-Feb-16 14:57N 35°19' E 139°41'0 0.1
2018-Feb-16 14:27N 35°19' E 139°41'0 0.0
2018-Feb-16 13:57N 35°19' E 139°41'0 0.0
2018-Feb-16 13:30N 35°19' E 139°41'2 3.0
2018-Feb-16 13:00N 35°19' E 139°40'1 1.1
2018-Feb-16 12:30N 35°18' E 139°39'0 0.0
2018-Feb-16 11:30N 35°18' E 139°39'0 0.0
2018-Feb-16 11:00N 35°18' E 139°39'0 0.0
2018-Feb-16 10:30N 35°18' E 139°39'0 0.0
2018-Feb-16 09:54N 35°18' E 139°39'0 0.0
2018-Feb-16 09:30N 35°18' E 139°39'0 0.0
2018-Feb-16 08:12N 35°18' E 139°39'0 0.0
2018-Feb-16 07:54N 35°18' E 139°39'0 0.0
2018-Feb-16 07:30N 35°18' E 139°39'0 0.0
2018-Feb-16 06:42N 35°18' E 139°39'0 0.0
2018-Feb-16 06:24N 35°18' E 139°39'0 0.0
2018-Feb-16 06:00N 35°18' E 139°39'0 0.0
2018-Feb-16 05:30N 35°18' E 139°39'0 0.0
2018-Feb-16 04:48N 35°18' E 139°39'0 0.0
2018-Feb-16 04:30N 35°18' E 139°39'0 0.0
2018-Feb-16 03:18N 35°18' E 139°39'0 0.0
2018-Feb-16 02:12N 35°18' E 139°39'0 0.0
2018-Feb-16 01:48N 35°18' E 139°39'0 0.0
2018-Feb-16 01:24N 35°18' E 139°39'0 0.0
2018-Feb-16 01:00N 35°18' E 139°39'0 0.0
2018-Feb-16 00:24N 35°18' E 139°39'0 0.0
2018-Feb-16 00:00N 35°18' E 139°39'0 0.0
2018-Feb-15 23:30N 35°18' E 139°39'2 3.7
2018-Feb-15 23:00N 35°19' E 139°41'0 0.5
2018-Feb-15 22:27N 35°19' E 139°41'0 0.0
2018-Feb-15 21:57N 35°19' E 139°41'0 0.0
2018-Feb-15 21:27N 35°19' E 139°41'0 0.0
2018-Feb-15 20:57N 35°19' E 139°41'0 0.0
2018-Feb-15 20:27N 35°19' E 139°41'0 0.0
2018-Feb-15 19:57N 35°19' E 139°41'0 0.1
2018-Feb-15 19:27N 35°19' E 139°41'0 0.0
2018-Feb-15 18:57N 35°19' E 139°41'0 0.0
2018-Feb-15 18:27N 35°19' E 139°41'0 0.1
2018-Feb-15 17:57N 35°19' E 139°41'0 0.0
2018-Feb-15 17:27N 35°19' E 139°41'0 0.0
2018-Feb-15 16:57N 35°19' E 139°41'0 0.0
2018-Feb-15 16:27N 35°19' E 139°41'0 0.0
2018-Feb-15 15:57N 35°19' E 139°41'0 0.0
2018-Feb-15 15:26N 35°19' E 139°41'0 0.0
2018-Feb-15 14:57N 35°19' E 139°41'0 0.1
2018-Feb-15 14:26N 35°19' E 139°41'0 0.0
2018-Feb-15 13:56N 35°19' E 139°41'0 0.0
2018-Feb-15 13:26N 35°19' E 139°41'0 0.0
2018-Feb-15 12:56N 35°19' E 139°41'0 0.0
2018-Feb-15 12:26N 35°19' E 139°41'0 0.0
2018-Feb-15 11:56N 35°19' E 139°41'0 0.0
2018-Feb-15 11:26N 35°19' E 139°41'0 0.0
2018-Feb-15 10:56N 35°19' E 139°41'0 0.0
2018-Feb-15 10:20N 35°19' E 139°41'0 0.0
2018-Feb-15 09:56N 35°19' E 139°41'0 0.1
2018-Feb-15 09:26N 35°19' E 139°41'0 0.1
2018-Feb-15 08:56N 35°19' E 139°41'0 0.0
2018-Feb-15 08:26N 35°19' E 139°41'0 0.1
2018-Feb-15 07:56N 35°19' E 139°41'0 0.0
2018-Feb-15 07:26N 35°19' E 139°41'0 0.0
2018-Feb-15 06:56N 35°19' E 139°41'0 0.0
2018-Feb-15 06:20N 35°19' E 139°41'0 0.0
2018-Feb-15 05:56N 35°19' E 139°41'0 0.0
2018-Feb-15 05:26N 35°19' E 139°41'0 0.0
2018-Feb-15 04:56N 35°19' E 139°41'0 0.0
2018-Feb-15 04:26N 35°19' E 139°41'0 0.0
2018-Feb-15 03:56N 35°19' E 139°41'0 0.0
2018-Feb-15 03:26N 35°19' E 139°41'0 0.0
2018-Feb-15 02:56N 35°19' E 139°41'0 0.0
2018-Feb-15 02:26N 35°19' E 139°41'0 0.0
2018-Feb-15 01:56N 35°19' E 139°41'0 0.3
2018-Feb-15 01:30N 35°19' E 139°41'5 9.6
2018-Feb-15 01:00N 35°16' E 139°46'510.9
2018-Feb-15 00:30N 35°11' E 139°47'510.4
2018-Feb-15 00:00N 35°06' E 139°47'5 9.5
2018-Feb-14 23:30N 35°02' E 139°43'510.6
2018-Feb-14 22:59N 34°60' E 139°37'4 8.3
2018-Feb-14 22:29N 34°58' E 139°32'611.0
2018-Feb-14 21:56N 34°54' E 139°26'511.5
2018-Feb-14 21:30N 34°50' E 139°22'611.1
2018-Feb-14 20:57N 34°46' E 139°17'3 6.7
2018-Feb-14 20:30N 34°44' E 139°15'5 8.2
2018-Feb-14 19:51N 34°40' E 139°10'410.5
2018-Feb-14 19:30N 34°37' E 139°07'610.4
2018-Feb-14 18:54N 34°33' E 139°02'4 9.7
2018-Feb-14 18:30N 34°31' E 138°58'710.2
2018-Feb-14 17:50N 34°29' E 138°50'610.3
2018-Feb-14 17:16N 34°27' E 138°43'310.1
2018-Feb-14 16:57N 34°26' E 138°39'6 9.9
2018-Feb-14 16:21N 34°24' E 138°33'4 9.9
2018-Feb-14 16:00N 34°22' E 138°29'8 9.6
2018-Feb-14 15:08N 34°19' E 138°20'310.2
2018-Feb-14 14:50N 34°18' E 138°16'6 9.6
2018-Feb-14 14:14N 34°16' E 138°10'2 9.4
2018-Feb-14 13:58N 34°15' E 138°07'154 9.0
2018-Feb-13 20:51N 33°48' E 135°04'410.2
2018-Feb-13 20:30N 33°51' E 135°01'510.0
2018-Feb-13 20:00N 33°56' E 134°59'510.3
2018-Feb-13 19:30N 34°01' E 134°58'510.1
2018-Feb-13 19:00N 34°06' E 134°58'611.3
2018-Feb-13 18:30N 34°12' E 134°59'510.4
2018-Feb-13 18:00N 34°17' E 134°58'510.3
2018-Feb-13 17:30N 34°22' E 134°60'510.3
2018-Feb-13 17:00N 34°27' E 135°01'510.6
2018-Feb-13 16:30N 34°32' E 135°03'510.6
2018-Feb-13 16:00N 34°37' E 135°01'613.0
2018-Feb-13 15:30N 34°35' E 134°53'611.0
2018-Feb-13 15:00N 34°33' E 134°47'510.4
2018-Feb-13 14:30N 34°30' E 134°41'510.6
2018-Feb-13 14:00N 34°29' E 134°36'510.3
2018-Feb-13 13:30N 34°27' E 134°30'510.3
2018-Feb-13 12:58N 34°24' E 134°24'510.2
2018-Feb-13 12:30N 34°24' E 134°18'510.2
2018-Feb-13 11:59N 34°25' E 134°12'75 9.5
2018-Feb-13 04:06N 34°01' E 132°46'1 9.8
2018-Feb-13 04:00N 34°00' E 132°45'510.1
2018-Feb-13 03:30N 33°56' E 132°42'510.5
2018-Feb-13 03:00N 33°54' E 132°36'611.2
2018-Feb-13 02:29N 33°54' E 132°29'510.4
2018-Feb-13 01:58N 33°58' E 132°34'4 8.2
2018-Feb-13 01:30N 34°01' E 132°31'610.9
2018-Feb-13 00:59N 34°04' E 132°25'511.3
2018-Feb-13 00:30N 34°06' E 132°20'4 7.6
2018-Feb-12 23:58N 34°08' E 132°15'0 0.0
2018-Feb-12 23:22N 34°08' E 132°15'0 0.0
2018-Feb-12 22:52N 34°08' E 132°15'0 0.0
2018-Feb-12 22:28N 34°08' E 132°15'0 0.0
2018-Feb-12 21:58N 34°08' E 132°15'0 0.0
2018-Feb-12 21:28N 34°08' E 132°15'0 0.0
2018-Feb-12 20:58N 34°08' E 132°15'0 0.0
2018-Feb-12 20:28N 34°08' E 132°15'0 0.0
2018-Feb-12 19:58N 34°08' E 132°15'0 0.0
2018-Feb-12 19:28N 34°08' E 132°15'0 0.0
2018-Feb-12 18:58N 34°08' E 132°15'0 0.0
2018-Feb-12 18:22N 34°08' E 132°15'0 0.0
2018-Feb-12 17:58N 34°08' E 132°15'0 0.0
2018-Feb-12 17:28N 34°08' E 132°15'0 0.0
2018-Feb-12 16:58N 34°08' E 132°15'0 0.0
2018-Feb-12 16:28N 34°08' E 132°15'0 0.0
2018-Feb-12 15:58N 34°08' E 132°15'0 0.0
2018-Feb-12 15:16N 34°08' E 132°15'0 0.0
2018-Feb-12 14:52N 34°08' E 132°15'0 0.0
2018-Feb-12 14:04N 34°08' E 132°15'0 0.0
2018-Feb-12 13:58N 34°08' E 132°15'0 0.0
2018-Feb-12 12:58N 34°08' E 132°15'0 0.0
2018-Feb-12 11:28N 34°08' E 132°15'0 0.0
2018-Feb-12 09:58N 34°08' E 132°15'0 0.0
2018-Feb-12 07:58N 34°08' E 132°15'0 0.1
2018-Feb-12 07:22N 34°08' E 132°15'0 0.0
2018-Feb-12 06:58N 34°08' E 132°15'0 0.0
2018-Feb-12 02:46N 34°08' E 132°15'0 0.0
2018-Feb-12 02:22N 34°08' E 132°15'0 0.0
2018-Feb-12 01:58N 34°08' E 132°15'0 0.1
2018-Feb-12 01:28N 34°08' E 132°15'0 0.0
2018-Feb-12 00:46N 34°08' E 132°15'0 0.2
2018-Feb-12 00:27N 34°08' E 132°15'0 0.0
2018-Feb-11 23:57N 34°08' E 132°15'0 0.0
2018-Feb-11 23:29N 34°08' E 132°15'0 0.1
2018-Feb-11 23:00N 34°08' E 132°15'2 3.4
2018-Feb-11 22:30N 34°08' E 132°17'3 6.6
2018-Feb-11 22:00N 34°09' E 132°21'4 8.5
2018-Feb-11 21:30N 34°05' E 132°24'5 8.6
2018-Feb-11 20:59N 34°02' E 132°27'4 7.4
2018-Feb-11 20:29N 34°01' E 132°32'3 5.8
2018-Feb-11 20:00N 33°60' E 132°35'510.1
2018-Feb-11 19:29N 33°56' E 132°30'510.9
2018-Feb-11 19:00N 33°52' E 132°26'710.6
2018-Feb-11 18:20N 33°50' E 132°18'811.0
2018-Feb-11 17:36N 33°48' E 132°08'311.0
2018-Feb-11 17:20N 33°46' E 132°05'910.9
2018-Feb-11 16:30N 33°45' E 131°55'611.1
2018-Feb-11 16:00N 33°45' E 131°48'611.6
2018-Feb-11 15:29N 33°46' E 131°41'611.7
2018-Feb-11 15:00N 33°47' E 131°34'612.0
2018-Feb-11 14:29N 33°49' E 131°27'612.1
2018-Feb-11 14:00N 33°50' E 131°20'612.3
2018-Feb-11 13:30N 33°51' E 131°13'612.0
2018-Feb-11 13:00N 33°54' E 131°07'611.6
2018-Feb-11 12:30N 33°58' E 131°02'5 9.9
2018-Feb-11 12:00N 33°56' E 130°56'3 6.6
2018-Feb-11 11:30N 33°56' E 130°52'510.9
2018-Feb-11 11:00N 34°01' E 130°50'611.2
2018-Feb-11 10:30N 34°02' E 130°43'611.5
2018-Feb-11 10:00N 34°00' E 130°37'611.3
2018-Feb-11 09:30N 33°58' E 130°30'611.2
2018-Feb-11 08:58N 33°56' E 130°23'510.7
2018-Feb-11 08:31N 33°54' E 130°18'510.5
2018-Feb-11 08:00N 33°51' E 130°13'611.0
2018-Feb-11 07:29N 33°48' E 130°07'611.1
2018-Feb-11 06:58N 33°45' E 130°01'511.1
2018-Feb-11 06:30N 33°42' E 129°56'  

Dump ship's entire track history